Terminal Aerodrome Forecast
Issued by NWS Boston, MA

Home | Current Version | Previous Version | Text Only | Print | Product List | Glossary On
Versions: 1 2 3 4 5 6 7 8 9 10 11 12 13 14 15 16 17 18 19 20 21 22 23 24 25 26 27 28 29 30 31 32 33 34 35 36 37 38 39 40 41 42 43
000
FTUS41 KBOX 291326 AAA
TAFPVD
TAF AMD
KPVD 291326Z 2913/3012 36005KT 5SM -RA BR SCT015 OVC050
      TEMPO 2914/2916 2SM RA BR OVC015
     FM291600 04006KT 6SM BR VCSH BKN045
     FM291800 05006KT P6SM VCSH SCT045
     FM300300 36006KT P6SM SCT200=

USA.gov is the U.S. government's official web portal to all federal, state and local government web resources and services.